sensor_id;sensor_type;location;lat;lon;timestamp;noise_LAeq;noise_LA_min;noise_LA_max;noise_LA01;noise_LA95
59284;Laerm;45056;47.602;9.886;2024-03-22T00:00:18;42.65;34.31;59.21;;
59284;Laerm;45056;47.602;9.886;2024-03-22T00:02:46;38.18;33.90;40.98;;
59284;Laerm;45056;47.602;9.886;2024-03-22T00:05:13;38.52;34.69;41.22;;
59284;Laerm;45056;47.602;9.886;2024-03-22T00:07:43;38.15;34.31;42.71;;
59284;Laerm;45056;47.602;9.886;2024-03-22T00:10:10;38.12;33.90;40.71;;
59284;Laerm;45056;47.602;9.886;2024-03-22T00:12:38;40.08;34.69;53.38;;
59284;Laerm;45056;47.602;9.886;2024-03-22T00:15:07;39.79;35.04;57.08;;
59284;Laerm;45056;47.602;9.886;2024-03-22T00:17:35;38.46;34.69;42.71;;
59284;Laerm;45056;47.602;9.886;2024-03-22T00:20:03;39.52;35.04;42.09;;
59284;Laerm;45056;47.602;9.886;2024-03-22T00:22:32;39.61;35.94;42.22;;
59284;Laerm;45056;47.602;9.886;2024-03-22T00:24:59;38.22;34.31;41.30;;
59284;Laerm;45056;47.602;9.886;2024-03-22T00:27:27;42.13;33.44;55.93;;
59284;Laerm;45056;47.602;9.886;2024-03-22T00:29:54;37.98;34.31;40.80;;
59284;Laerm;45056;47.602;9.886;2024-03-22T00:32:24;41.75;34.69;56.72;;
59284;Laerm;45056;47.602;9.886;2024-03-22T00:34:51;38.69;35.04;56.88;;
59284;Laerm;45056;47.602;9.886;2024-03-22T00:37:19;40.23;35.04;52.85;;
59284;Laerm;45056;47.602;9.886;2024-03-22T00:39:46;39.46;35.04;44.15;;
59284;Laerm;45056;47.602;9.886;2024-03-22T00:42:14;41.14;35.36;54.93;;
59284;Laerm;45056;47.602;9.886;2024-03-22T00:44:41;38.20;33.90;42.65;;
59284;Laerm;45056;47.602;9.886;2024-03-22T00:47:09;40.49;33.44;56.35;;
59284;Laerm;45056;47.602;9.886;2024-03-22T00:49:37;38.35;33.44;43.68;;
59284;Laerm;45056;47.602;9.886;2024-03-22T00:52:05;38.15;34.69;40.80;;
59284;Laerm;45056;47.602;9.886;2024-03-22T00:54:32;38.25;34.31;45.48;;
59284;Laerm;45056;47.602;9.886;2024-03-22T00:57:01;38.50;34.69;44.51;;
59284;Laerm;45056;47.602;9.886;2024-03-22T00:59:28;38.80;35.36;55.85;;
59284;Laerm;45056;47.602;9.886;2024-03-22T01:01:56;43.68;34.69;60.50;;
59284;Laerm;45056;47.602;9.886;2024-03-22T01:04:23;39.91;34.31;51.97;;
59284;Laerm;45056;47.602;9.886;2024-03-22T01:06:53;38.55;33.90;42.65;;
59284;Laerm;45056;47.602;9.886;2024-03-22T01:09:20;38.51;34.69;42.09;;
59284;Laerm;45056;47.602;9.886;2024-03-22T01:11:48;38.63;33.90;42.29;;
59284;Laerm;45056;47.602;9.886;2024-03-22T01:14:15;39.09;33.90;44.27;;
59284;Laerm;45056;47.602;9.886;2024-03-22T01:16:43;39.95;34.69;55.49;;
59284;Laerm;45056;47.602;9.886;2024-03-22T01:19:10;40.95;36.20;49.66;;
59284;Laerm;45056;47.602;9.886;2024-03-22T01:21:38;40.56;35.04;44.83;;
59284;Laerm;45056;47.602;9.886;2024-03-22T01:24:06;38.46;34.69;42.22;;
59284;Laerm;45056;47.602;9.886;2024-03-22T01:26:34;38.66;35.04;41.68;;
59284;Laerm;45056;47.602;9.886;2024-03-22T01:29:01;38.94;35.36;42.71;;
59284;Laerm;45056;47.602;9.886;2024-03-22T01:31:39;40.62;35.04;57.81;;
59284;Laerm;45056;47.602;9.886;2024-03-22T01:34:08;41.15;35.94;53.59;;
59284;Laerm;45056;47.602;9.886;2024-03-22T01:36:35;47.42;36.20;64.72;;
59284;Laerm;45056;47.602;9.886;2024-03-22T01:39:02;39.69;35.36;43.44;;
59284;Laerm;45056;47.602;9.886;2024-03-22T01:41:32;39.61;34.69;48.23;;
59284;Laerm;45056;47.602;9.886;2024-03-22T01:44:00;38.62;34.69;42.59;;
59284;Laerm;45056;47.602;9.886;2024-03-22T01:46:28;41.94;34.69;56.15;;
59284;Laerm;45056;47.602;9.886;2024-03-22T01:48:55;38.83;34.31;42.16;;
59284;Laerm;45056;47.602;9.886;2024-03-22T01:51:23;40.81;36.69;43.99;;
59284;Laerm;45056;47.602;9.886;2024-03-22T01:53:53;40.55;34.69;52.17;;
59284;Laerm;45056;47.602;9.886;2024-03-22T01:56:22;39.04;34.69;43.90;;
59284;Laerm;45056;47.602;9.886;2024-03-22T01:58:51;39.36;34.69;43.39;;
59284;Laerm;45056;47.602;9.886;2024-03-22T02:01:20;44.91;35.04;60.67;;
59284;Laerm;45056;47.602;9.886;2024-03-22T02:03:47;38.18;34.31;40.62;;
59284;Laerm;45056;47.602;9.886;2024-03-22T02:06:15;38.74;34.69;45.33;;
59284;Laerm;45056;47.602;9.886;2024-03-22T02:08:42;38.79;35.04;41.61;;
59284;Laerm;45056;47.602;9.886;2024-03-22T02:11:10;38.44;35.01;40.80;;
59284;Laerm;45056;47.602;9.886;2024-03-22T02:13:37;38.52;34.69;40.80;;
59284;Laerm;45056;47.602;9.886;2024-03-22T02:16:07;39.88;35.04;56.84;;
59284;Laerm;45056;47.602;9.886;2024-03-22T02:18:35;39.10;35.66;41.89;;
59284;Laerm;45056;47.602;9.886;2024-03-22T02:21:03;38.48;35.36;40.89;;
59284;Laerm;45056;47.602;9.886;2024-03-22T02:23:34;39.31;35.04;42.64;;
59284;Laerm;45056;47.602;9.886;2024-03-22T02:26:04;40.38;35.94;44.76;;
59284;Laerm;45056;47.602;9.886;2024-03-22T02:28:34;40.50;35.94;50.02;;
59284;Laerm;45056;47.602;9.886;2024-03-22T02:31:03;41.34;34.31;57.98;;
59284;Laerm;45056;47.602;9.886;2024-03-22T02:33:31;38.83;34.69;44.11;;
59284;Laerm;45056;47.602;9.886;2024-03-22T02:35:59;38.28;33.44;48.21;;
59284;Laerm;45056;47.602;9.886;2024-03-22T02:38:26;39.68;35.66;46.35;;
59284;Laerm;45056;47.602;9.886;2024-03-22T02:40:55;39.70;35.86;49.33;;
59284;Laerm;45056;47.602;9.886;2024-03-22T02:43:24;40.90;33.90;54.72;;
59284;Laerm;45056;47.602;9.886;2024-03-22T02:45:52;51.42;35.36;69.49;;
59284;Laerm;45056;47.602;9.886;2024-03-22T02:48:19;43.46;35.04;60.22;;
59284;Laerm;45056;47.602;9.886;2024-03-22T02:50:47;38.22;33.90;41.68;;
59284;Laerm;45056;47.602;9.886;2024-03-22T02:53:14;38.22;34.31;41.61;;
59284;Laerm;45056;47.602;9.886;2024-03-22T02:55:42;38.87;34.69;48.73;;
59284;Laerm;45056;47.602;9.886;2024-03-22T02:58:10;41.39;36.20;53.74;;
59284;Laerm;45056;47.602;9.886;2024-03-22T03:00:39;46.33;34.69;61.31;;
59284;Laerm;45056;47.602;9.886;2024-03-22T03:03:06;39.17;35.04;46.10;;
59284;Laerm;45056;47.602;9.886;2024-03-22T03:05:34;38.87;34.31;47.40;;
59284;Laerm;45056;47.602;9.886;2024-03-22T03:08:01;39.26;33.90;45.23;;
59284;Laerm;45056;47.602;9.886;2024-03-22T03:10:30;39.93;32.35;53.10;;
59284;Laerm;45056;47.602;9.886;2024-03-22T03:12:57;38.33;33.44;40.80;;
59284;Laerm;45056;47.602;9.886;2024-03-22T03:15:26;40.88;34.69;54.52;;
59284;Laerm;45056;47.602;9.886;2024-03-22T03:17:53;39.28;35.36;44.03;;
59284;Laerm;45056;47.602;9.886;2024-03-22T03:20:21;42.18;34.31;53.44;;
59284;Laerm;45056;47.602;9.886;2024-03-22T03:22:48;41.61;34.31;58.29;;
59284;Laerm;45056;47.602;9.886;2024-03-22T03:25:16;41.78;35.36;56.96;;
59284;Laerm;45056;47.602;9.886;2024-03-22T03:27:43;41.77;35.66;56.49;;
59284;Laerm;45056;47.602;9.886;2024-03-22T03:30:11;41.79;35.36;54.40;;
59284;Laerm;45056;47.602;9.886;2024-03-22T03:32:40;42.07;36.91;55.13;;
59284;Laerm;45056;47.602;9.886;2024-03-22T03:35:08;43.88;36.20;59.01;;
59284;Laerm;45056;47.602;9.886;2024-03-22T03:37:35;43.25;35.94;57.92;;
59284;Laerm;45056;47.602;9.886;2024-03-22T03:40:05;46.97;36.20;63.42;;
59284;Laerm;45056;47.602;9.886;2024-03-22T03:42:32;41.42;36.69;47.48;;
59284;Laerm;45056;47.602;9.886;2024-03-22T03:45:00;47.91;35.04;63.36;;
59284;Laerm;45056;47.602;9.886;2024-03-22T03:47:27;45.46;37.88;57.81;;
59284;Laerm;45056;47.602;9.886;2024-03-22T03:49:57;48.49;35.94;63.56;;
59284;Laerm;45056;47.602;9.886;2024-03-22T03:52:24;44.89;36.69;54.21;;
59284;Laerm;45056;47.602;9.886;2024-03-22T03:54:52;45.52;37.12;56.78;;
59284;Laerm;45056;47.602;9.886;2024-03-22T03:57:19;43.66;36.69;54.71;;
59284;Laerm;45056;47.602;9.886;2024-03-22T03:59:47;44.01;35.36;58.01;;
59284;Laerm;45056;47.602;9.886;2024-03-22T04:02:14;46.82;37.52;61.04;;
59284;Laerm;45056;47.602;9.886;2024-03-22T04:04:42;44.15;38.05;56.19;;
59284;Laerm;45056;47.602;9.886;2024-03-22T04:07:10;42.53;38.52;52.56;;
59284;Laerm;45056;47.602;9.886;2024-03-22T04:09:38;45.87;38.21;58.00;;
59284;Laerm;45056;47.602;9.886;2024-03-22T04:12:05;44.91;39.70;54.64;;
59284;Laerm;45056;47.602;9.886;2024-03-22T04:14:34;44.53;37.70;57.29;;
59284;Laerm;45056;47.602;9.886;2024-03-22T04:17:01;45.54;39.46;58.63;;
59284;Laerm;45056;47.602;9.886;2024-03-22T04:19:29;45.34;37.88;60.36;;
59284;Laerm;45056;47.602;9.886;2024-03-22T04:21:56;45.03;38.67;56.49;;
59284;Laerm;45056;47.602;9.886;2024-03-22T04:24:25;45.34;39.34;57.92;;
59284;Laerm;45056;47.602;9.886;2024-03-22T04:26:52;45.65;37.87;60.34;;
59284;Laerm;45056;47.602;9.886;2024-03-22T04:29:20;45.04;38.52;55.53;;
59284;Laerm;45056;47.602;9.886;2024-03-22T04:31:47;45.85;37.32;61.02;;
59284;Laerm;45056;47.602;9.886;2024-03-22T04:34:15;44.55;38.37;53.55;;
59284;Laerm;45056;47.602;9.886;2024-03-22T04:36:42;46.48;39.57;57.43;;
59284;Laerm;45056;47.602;9.886;2024-03-22T04:39:11;50.22;40.03;62.42;;
59284;Laerm;45056;47.602;9.886;2024-03-22T04:41:41;49.00;39.46;59.91;;
59284;Laerm;45056;47.602;9.886;2024-03-22T04:44:09;49.05;40.62;60.65;;
59284;Laerm;45056;47.602;9.886;2024-03-22T04:46:37;50.55;42.53;63.67;;
59284;Laerm;45056;47.602;9.886;2024-03-22T04:49:04;46.56;40.03;56.46;;
59284;Laerm;45056;47.602;9.886;2024-03-22T04:51:32;48.71;41.53;62.82;;
59284;Laerm;45056;47.602;9.886;2024-03-22T04:53:59;47.83;40.98;58.34;;
59284;Laerm;45056;47.602;9.886;2024-03-22T04:56:27;48.71;41.38;59.37;;
59284;Laerm;45056;47.602;9.886;2024-03-22T04:58:56;46.98;40.62;59.21;;
59284;Laerm;45056;47.602;9.886;2024-03-22T05:01:24;50.41;40.23;65.11;;
59284;Laerm;45056;47.602;9.886;2024-03-22T05:03:51;57.62;40.43;72.49;;
59284;Laerm;45056;47.602;9.886;2024-03-22T05:06:19;46.26;38.81;55.59;;
59284;Laerm;45056;47.602;9.886;2024-03-22T05:08:46;46.12;39.81;56.56;;
59284;Laerm;45056;47.602;9.886;2024-03-22T05:11:14;45.93;40.62;58.60;;
59284;Laerm;45056;47.602;9.886;2024-03-22T05:13:41;47.69;40.98;61.53;;
59284;Laerm;45056;47.602;9.886;2024-03-22T05:16:11;47.91;41.30;59.62;;
59284;Laerm;45056;47.602;9.886;2024-03-22T05:18:39;49.26;40.53;59.36;;
59284;Laerm;45056;47.602;9.886;2024-03-22T05:21:07;46.60;40.62;58.14;;
59284;Laerm;45056;47.602;9.886;2024-03-22T05:23:34;47.15;40.03;59.60;;
59284;Laerm;45056;47.602;9.886;2024-03-22T05:26:02;49.29;40.98;61.90;;
59284;Laerm;45056;47.602;9.886;2024-03-22T05:28:30;48.40;40.33;64.81;;
59284;Laerm;45056;47.602;9.886;2024-03-22T05:30:58;50.47;40.03;68.76;;
59284;Laerm;45056;47.602;9.886;2024-03-22T05:33:27;47.99;40.43;65.24;;
59284;Laerm;45056;47.602;9.886;2024-03-22T05:35:55;49.80;39.34;68.04;;
59284;Laerm;45056;47.602;9.886;2024-03-22T05:38:22;48.91;40.89;59.13;;
59284;Laerm;45056;47.602;9.886;2024-03-22T05:40:50;48.68;40.80;59.98;;
59284;Laerm;45056;47.602;9.886;2024-03-22T05:43:17;47.34;40.80;59.72;;
59284;Laerm;45056;47.602;9.886;2024-03-22T05:45:45;50.21;42.09;61.17;;
59284;Laerm;45056;47.602;9.886;2024-03-22T05:48:12;50.11;41.68;60.80;;
59284;Laerm;45056;47.602;9.886;2024-03-22T05:50:42;49.15;41.14;66.72;;
59284;Laerm;45056;47.602;9.886;2024-03-22T05:53:10;48.68;40.13;57.55;;
59284;Laerm;45056;47.602;9.886;2024-03-22T05:55:36;48.62;41.14;60.91;;
59284;Laerm;45056;47.602;9.886;2024-03-22T05:58:05;50.49;41.46;60.34;;
59284;Laerm;45056;47.602;9.886;2024-03-22T06:00:32;51.55;41.30;62.89;;
59284;Laerm;45056;47.602;9.886;2024-03-22T06:03:00;47.93;39.70;60.29;;
59284;Laerm;45056;47.602;9.886;2024-03-22T06:05:26;48.13;40.89;59.85;;
59284;Laerm;45056;47.602;9.886;2024-03-22T06:07:56;49.41;41.22;59.29;;
59284;Laerm;45056;47.602;9.886;2024-03-22T06:10:23;49.10;42.16;57.43;;
59284;Laerm;45056;47.602;9.886;2024-03-22T06:12:51;49.46;42.09;59.06;;
59284;Laerm;45056;47.602;9.886;2024-03-22T06:15:18;49.92;41.46;61.49;;
59284;Laerm;45056;47.602;9.886;2024-03-22T06:17:48;50.87;42.29;67.02;;
59284;Laerm;45056;47.602;9.886;2024-03-22T06:20:15;50.50;42.09;59.00;;
59284;Laerm;45056;47.602;9.886;2024-03-22T06:22:43;50.68;42.09;61.06;;
59284;Laerm;45056;47.602;9.886;2024-03-22T06:25:11;52.32;40.79;68.67;;
59284;Laerm;45056;47.602;9.886;2024-03-22T06:27:39;49.21;40.80;56.97;;
59284;Laerm;45056;47.602;9.886;2024-03-22T06:30:07;49.55;40.89;61.00;;
59284;Laerm;45056;47.602;9.886;2024-03-22T06:32:35;49.42;41.75;59.06;;
59284;Laerm;45056;47.602;9.886;2024-03-22T06:35:03;51.28;42.65;63.96;;
59284;Laerm;45056;47.602;9.886;2024-03-22T06:37:32;52.67;43.77;77.81;;
59284;Laerm;45056;47.602;9.886;2024-03-22T06:39:59;50.11;43.34;58.08;;
59284;Laerm;45056;47.602;9.886;2024-03-22T06:42:28;51.56;43.39;64.37;;
59284;Laerm;45056;47.602;9.886;2024-03-22T06:44:55;52.70;43.54;65.86;;
59284;Laerm;45056;47.602;9.886;2024-03-22T06:47:23;52.23;42.47;66.40;;
59284;Laerm;45056;47.602;9.886;2024-03-22T06:49:50;49.17;43.19;59.64;;
59284;Laerm;45056;47.602;9.886;2024-03-22T06:52:18;49.70;42.29;64.73;;
59284;Laerm;45056;47.602;9.886;2024-03-22T06:54:46;49.12;43.34;57.21;;
59284;Laerm;45056;47.602;9.886;2024-03-22T06:57:14;48.40;42.29;58.29;;
59284;Laerm;45056;47.602;9.886;2024-03-22T06:59:43;49.91;40.03;59.38;;
59284;Laerm;45056;47.602;9.886;2024-03-22T07:02:11;52.84;42.47;71.52;;
59284;Laerm;45056;47.602;9.886;2024-03-22T07:04:39;52.12;42.65;68.09;;
59284;Laerm;45056;47.602;9.886;2024-03-22T07:07:07;47.70;41.06;55.81;;
59284;Laerm;45056;47.602;9.886;2024-03-22T07:09:34;47.51;41.82;56.04;;
59284;Laerm;45056;47.602;9.886;2024-03-22T07:12:03;47.84;41.22;56.01;;
59284;Laerm;45056;47.602;9.886;2024-03-22T07:14:30;50.59;42.03;58.40;;
59284;Laerm;45056;47.602;9.886;2024-03-22T07:16:59;49.56;41.22;60.49;;
59284;Laerm;45056;47.602;9.886;2024-03-22T07:19:26;51.45;41.75;65.11;;
59284;Laerm;45056;47.602;9.886;2024-03-22T07:21:55;49.79;39.92;62.08;;
59284;Laerm;45056;47.602;9.886;2024-03-22T07:24:22;49.92;42.16;57.48;;
59284;Laerm;45056;47.602;9.886;2024-03-22T07:26:51;50.65;41.22;67.83;;
59284;Laerm;45056;47.602;9.886;2024-03-22T07:29:18;52.94;43.24;66.22;;
59284;Laerm;45056;47.602;9.886;2024-03-22T07:31:46;51.92;42.22;65.19;;
59284;Laerm;45056;47.602;9.886;2024-03-22T07:34:14;49.48;41.68;59.54;;
59284;Laerm;45056;47.602;9.886;2024-03-22T07:36:43;51.06;41.30;64.15;;
59284;Laerm;45056;47.602;9.886;2024-03-22T07:39:10;50.11;41.89;60.35;;
59284;Laerm;45056;47.602;9.886;2024-03-22T07:41:38;49.13;41.53;59.73;;
59284;Laerm;45056;47.602;9.886;2024-03-22T07:44:05;49.00;40.71;65.26;;
59284;Laerm;45056;47.602;9.886;2024-03-22T07:46:33;50.51;40.89;62.71;;
59284;Laerm;45056;47.602;9.886;2024-03-22T07:49:00;50.37;42.41;64.87;;
59284;Laerm;45056;47.602;9.886;2024-03-22T07:51:30;47.62;41.30;61.21;;
59284;Laerm;45056;47.602;9.886;2024-03-22T07:53:57;49.83;41.75;61.38;;
59284;Laerm;45056;47.602;9.886;2024-03-22T07:56:24;51.29;43.29;62.66;;
59284;Laerm;45056;47.602;9.886;2024-03-22T07:58:51;47.91;40.71;59.25;;
59284;Laerm;45056;47.602;9.886;2024-03-22T08:01:19;50.71;41.14;60.03;;
59284;Laerm;45056;47.602;9.886;2024-03-22T08:03:46;50.65;43.19;58.54;;
59284;Laerm;45056;47.602;9.886;2024-03-22T08:06:15;49.85;42.58;57.16;;
59284;Laerm;45056;47.602;9.886;2024-03-22T08:08:44;47.94;41.06;58.12;;
59284;Laerm;45056;47.602;9.886;2024-03-22T08:11:12;48.52;40.80;57.71;;
59284;Laerm;45056;47.602;9.886;2024-03-22T08:13:40;49.19;42.65;59.39;;
59284;Laerm;45056;47.602;9.886;2024-03-22T08:16:07;50.71;43.39;62.58;;
59284;Laerm;45056;47.602;9.886;2024-03-22T08:18:35;50.99;41.22;62.54;;
59284;Laerm;45056;47.602;9.886;2024-03-22T08:21:03;48.84;40.23;59.84;;
59284;Laerm;45056;47.602;9.886;2024-03-22T08:23:31;50.56;41.89;64.87;;
59284;Laerm;45056;47.602;9.886;2024-03-22T08:25:59;51.77;43.19;64.37;;
59284;Laerm;45056;47.602;9.886;2024-03-22T08:28:27;52.99;41.61;72.16;;
59284;Laerm;45056;47.602;9.886;2024-03-22T08:30:54;48.58;41.89;58.05;;
59284;Laerm;45056;47.602;9.886;2024-03-22T08:33:22;51.04;41.46;61.82;;
59284;Laerm;45056;47.602;9.886;2024-03-22T08:35:50;59.74;42.82;81.43;;
59284;Laerm;45056;47.602;9.886;2024-03-22T08:38:18;47.78;41.22;56.10;;
59284;Laerm;45056;47.602;9.886;2024-03-22T08:40:45;49.59;42.98;60.12;;
59284;Laerm;45056;47.602;9.886;2024-03-22T08:43:14;48.81;43.09;58.23;;
59284;Laerm;45056;47.602;9.886;2024-03-22T08:45:42;53.35;42.47;69.34;;
59284;Laerm;45056;47.602;9.886;2024-03-22T08:48:10;56.74;43.04;72.67;;
59284;Laerm;45056;47.602;9.886;2024-03-22T08:50:37;55.50;42.98;71.02;;
59284;Laerm;45056;47.602;9.886;2024-03-22T08:53:04;49.64;41.68;62.70;;
59284;Laerm;45056;47.602;9.886;2024-03-22T08:55:33;51.15;40.98;65.23;;
59284;Laerm;45056;47.602;9.886;2024-03-22T08:58:01;47.44;40.62;60.29;;
59284;Laerm;45056;47.602;9.886;2024-03-22T09:00:30;50.96;42.71;62.06;;
59284;Laerm;45056;47.602;9.886;2024-03-22T09:02:58;48.72;41.82;57.03;;
59284;Laerm;45056;47.602;9.886;2024-03-22T09:05:25;52.90;43.90;65.53;;
59284;Laerm;45056;47.602;9.886;2024-03-22T09:07:54;53.07;42.93;66.94;;
59284;Laerm;45056;47.602;9.886;2024-03-22T09:10:22;51.93;41.96;66.17;;
59284;Laerm;45056;47.602;9.886;2024-03-22T09:12:51;50.56;41.38;62.66;;
59284;Laerm;45056;47.602;9.886;2024-03-22T09:15:18;48.71;40.80;58.92;;
59284;Laerm;45056;47.602;9.886;2024-03-22T09:17:47;49.60;41.14;60.99;;
59284;Laerm;45056;47.602;9.886;2024-03-22T09:20:15;49.14;40.71;61.80;;
59284;Laerm;45056;47.602;9.886;2024-03-22T09:22:43;49.75;42.59;56.82;;
59284;Laerm;45056;47.602;9.886;2024-03-22T09:25:10;49.58;42.35;60.25;;
59284;Laerm;45056;47.602;9.886;2024-03-22T09:27:38;49.14;42.53;61.30;;
59284;Laerm;45056;47.602;9.886;2024-03-22T09:30:06;49.97;41.30;63.28;;
59284;Laerm;45056;47.602;9.886;2024-03-22T09:32:36;51.32;43.24;67.14;;
59284;Laerm;45056;47.602;9.886;2024-03-22T09:35:06;48.19;40.53;57.79;;
59284;Laerm;45056;47.602;9.886;2024-03-22T09:37:34;51.04;42.42;65.44;;
59284;Laerm;45056;47.602;9.886;2024-03-22T09:40:02;51.49;42.47;62.22;;
59284;Laerm;45056;47.602;9.886;2024-03-22T09:42:38;47.82;42.03;56.19;;
59284;Laerm;45056;47.602;9.886;2024-03-22T09:45:09;50.42;40.98;60.09;;
59284;Laerm;45056;47.602;9.886;2024-03-22T09:47:39;49.57;41.96;62.17;;
59284;Laerm;45056;47.602;9.886;2024-03-22T09:50:08;47.70;40.98;56.60;;
59284;Laerm;45056;47.602;9.886;2024-03-22T09:52:38;52.30;43.72;69.77;;
59284;Laerm;45056;47.602;9.886;2024-03-22T09:55:07;51.05;42.76;63.62;;
59284;Laerm;45056;47.602;9.886;2024-03-22T09:57:39;50.54;42.71;61.11;;
59284;Laerm;45056;47.602;9.886;2024-03-22T10:00:07;50.95;42.16;64.78;;
59284;Laerm;45056;47.602;9.886;2024-03-22T10:02:38;51.67;43.49;63.97;;
59284;Laerm;45056;47.602;9.886;2024-03-22T10:05:06;50.18;42.22;61.99;;
59284;Laerm;45056;47.602;9.886;2024-03-22T10:07:35;55.46;44.03;70.78;;
59284;Laerm;45056;47.602;9.886;2024-03-22T10:10:03;50.58;42.47;62.45;;
59284;Laerm;45056;47.602;9.886;2024-03-22T10:12:31;50.39;42.65;61.64;;
59284;Laerm;45056;47.602;9.886;2024-03-22T10:14:59;51.25;41.30;63.92;;
59284;Laerm;45056;47.602;9.886;2024-03-22T10:17:28;50.96;41.53;62.46;;
59284;Laerm;45056;47.602;9.886;2024-03-22T10:19:56;49.11;42.47;58.15;;
59284;Laerm;45056;47.602;9.886;2024-03-22T10:22:25;48.46;41.46;57.12;;
59284;Laerm;45056;47.602;9.886;2024-03-22T10:24:54;46.84;40.43;57.70;;
59284;Laerm;45056;47.602;9.886;2024-03-22T10:27:22;47.35;41.96;54.67;;
59284;Laerm;45056;47.602;9.886;2024-03-22T10:29:49;50.50;43.04;62.30;;
59284;Laerm;45056;47.602;9.886;2024-03-22T10:32:18;48.27;41.68;58.24;;
59284;Laerm;45056;47.602;9.886;2024-03-22T10:34:46;49.78;41.96;58.15;;
59284;Laerm;45056;47.602;9.886;2024-03-22T10:37:16;50.86;42.29;62.19;;
59284;Laerm;45056;47.602;9.886;2024-03-22T10:39:46;51.77;42.65;62.52;;
59284;Laerm;45056;47.602;9.886;2024-03-22T10:42:17;51.10;42.35;66.13;;
59284;Laerm;45056;47.602;9.886;2024-03-22T10:44:45;51.56;42.35;63.23;;
59284;Laerm;45056;47.602;9.886;2024-03-22T10:47:21;50.94;43.72;61.53;;
59284;Laerm;45056;47.602;9.886;2024-03-22T10:50:03;50.28;43.49;61.76;;
59284;Laerm;45056;47.602;9.886;2024-03-22T10:52:38;53.42;43.19;66.97;;
59284;Laerm;45056;47.602;9.886;2024-03-22T10:55:14;48.64;42.41;57.01;;
59284;Laerm;45056;47.602;9.886;2024-03-22T10:57:46;53.74;42.41;72.76;;
59284;Laerm;45056;47.602;9.886;2024-03-22T11:00:14;51.59;42.41;66.27;;
59284;Laerm;45056;47.602;9.886;2024-03-22T11:02:45;52.85;44.83;64.05;;
59284;Laerm;45056;47.602;9.886;2024-03-22T11:05:17;61.07;47.62;69.22;;
59284;Laerm;45056;47.602;9.886;2024-03-22T11:07:45;53.61;42.76;68.19;;
59284;Laerm;45056;47.602;9.886;2024-03-22T11:10:13;49.39;43.77;64.27;;
59284;Laerm;45056;47.602;9.886;2024-03-22T11:12:41;50.64;43.63;64.43;;
59284;Laerm;45056;47.602;9.886;2024-03-22T11:15:10;50.89;44.03;59.62;;
59284;Laerm;45056;47.602;9.886;2024-03-22T11:17:39;50.74;42.03;61.91;;
59284;Laerm;45056;47.602;9.886;2024-03-22T11:20:06;50.79;43.68;64.54;;
59284;Laerm;45056;47.602;9.886;2024-03-22T11:22:34;49.61;41.46;58.57;;
59284;Laerm;45056;47.602;9.886;2024-03-22T11:25:01;50.83;44.03;61.71;;
59284;Laerm;45056;47.602;9.886;2024-03-22T11:27:29;49.43;42.65;61.53;;
59284;Laerm;45056;47.602;9.886;2024-03-22T11:29:56;47.59;41.46;54.69;;
59284;Laerm;45056;47.602;9.886;2024-03-22T11:32:26;49.17;42.82;59.74;;
59284;Laerm;45056;47.602;9.886;2024-03-22T11:34:53;51.28;43.14;63.09;;
59284;Laerm;45056;47.602;9.886;2024-03-22T11:37:21;54.40;43.09;72.04;;
59284;Laerm;45056;47.602;9.886;2024-03-22T11:39:48;49.01;43.58;55.55;;
59284;Laerm;45056;47.602;9.886;2024-03-22T11:42:18;50.66;42.59;60.24;;
59284;Laerm;45056;47.602;9.886;2024-03-22T11:44:45;48.72;42.65;62.31;;
59284;Laerm;45056;47.602;9.886;2024-03-22T11:47:13;50.30;42.71;59.08;;
59284;Laerm;45056;47.602;9.886;2024-03-22T11:49:42;51.40;43.19;64.16;;
59284;Laerm;45056;47.602;9.886;2024-03-22T11:52:10;49.31;42.29;60.84;;
59284;Laerm;45056;47.602;9.886;2024-03-22T11:54:37;52.51;43.39;68.69;;
59284;Laerm;45056;47.602;9.886;2024-03-22T11:57:05;48.77;40.98;57.02;;
59284;Laerm;45056;47.602;9.886;2024-03-22T11:59:32;49.40;43.77;61.79;;
59284;Laerm;45056;47.602;9.886;2024-03-22T12:02:00;50.42;42.03;61.33;;
59284;Laerm;45056;47.602;9.886;2024-03-22T12:04:27;47.80;42.16;64.79;;
59284;Laerm;45056;47.602;9.886;2024-03-22T12:06:57;50.12;42.16;65.44;;
59284;Laerm;45056;47.602;9.886;2024-03-22T12:09:24;48.52;42.98;59.82;;
59284;Laerm;45056;47.602;9.886;2024-03-22T12:11:55;48.16;42.29;58.66;;
59284;Laerm;45056;47.602;9.886;2024-03-22T12:14:22;49.31;41.61;61.40;;
59284;Laerm;45056;47.602;9.886;2024-03-22T12:16:50;50.52;42.76;60.13;;
59284;Laerm;45056;47.602;9.886;2024-03-22T12:19:17;52.09;40.89;64.44;;
59284;Laerm;45056;47.602;9.886;2024-03-22T12:21:45;52.01;41.75;69.28;;
59284;Laerm;45056;47.602;9.886;2024-03-22T12:24:15;49.71;41.89;62.02;;
59284;Laerm;45056;47.602;9.886;2024-03-22T12:26:43;50.97;42.53;65.48;;
59284;Laerm;45056;47.602;9.886;2024-03-22T12:29:10;53.10;42.93;67.23;;
59284;Laerm;45056;47.602;9.886;2024-03-22T12:31:38;48.61;42.47;57.15;;
59284;Laerm;45056;47.602;9.886;2024-03-22T12:34:05;51.35;42.29;68.42;;
59284;Laerm;45056;47.602;9.886;2024-03-22T12:36:33;48.32;42.29;59.19;;
59284;Laerm;45056;47.602;9.886;2024-03-22T12:39:00;50.63;42.16;63.23;;
59284;Laerm;45056;47.602;9.886;2024-03-22T12:41:30;49.32;42.98;63.31;;
59284;Laerm;45056;47.602;9.886;2024-03-22T12:43:58;48.85;40.71;61.99;;
59284;Laerm;45056;47.602;9.886;2024-03-22T12:46:27;49.91;41.96;61.39;;
59284;Laerm;45056;47.602;9.886;2024-03-22T12:48:54;49.77;41.46;59.54;;
59284;Laerm;45056;47.602;9.886;2024-03-22T12:51:22;48.89;42.71;64.23;;
59284;Laerm;45056;47.602;9.886;2024-03-22T12:53:49;49.70;42.71;60.58;;
59284;Laerm;45056;47.602;9.886;2024-03-22T12:56:17;49.75;42.19;60.17;;
59284;Laerm;45056;47.602;9.886;2024-03-22T12:58:46;51.07;42.98;64.74;;
59284;Laerm;45056;47.602;9.886;2024-03-22T13:01:14;50.19;41.53;59.97;;
59284;Laerm;45056;47.602;9.886;2024-03-22T13:03:41;49.87;43.14;61.69;;
59284;Laerm;45056;47.602;9.886;2024-03-22T13:06:09;53.07;43.14;68.99;;
59284;Laerm;45056;47.602;9.886;2024-03-22T13:08:37;49.29;42.35;57.18;;
59284;Laerm;45056;47.602;9.886;2024-03-22T13:11:05;52.80;42.16;69.01;;
59284;Laerm;45056;47.602;9.886;2024-03-22T13:13:35;51.16;41.82;72.48;;
59284;Laerm;45056;47.602;9.886;2024-03-22T13:16:05;53.16;43.90;69.73;;
59284;Laerm;45056;47.602;9.886;2024-03-22T13:18:33;50.49;43.54;59.25;;
59284;Laerm;45056;47.602;9.886;2024-03-22T13:21:01;48.84;42.59;56.31;;
59284;Laerm;45056;47.602;9.886;2024-03-22T13:23:29;49.32;41.82;59.91;;
59284;Laerm;45056;47.602;9.886;2024-03-22T13:26:02;49.14;40.13;59.43;;
59284;Laerm;45056;47.602;9.886;2024-03-22T13:28:29;51.31;42.76;66.24;;
59284;Laerm;45056;47.602;9.886;2024-03-22T13:31:02;51.31;42.93;65.30;;
59284;Laerm;45056;47.602;9.886;2024-03-22T13:33:31;48.01;42.53;56.81;;
59284;Laerm;45056;47.602;9.886;2024-03-22T13:35:59;51.22;42.16;63.38;;
59284;Laerm;45056;47.602;9.886;2024-03-22T13:38:26;52.28;43.24;67.63;;
59284;Laerm;45056;47.602;9.886;2024-03-22T13:40:56;55.79;42.29;72.66;;
59284;Laerm;45056;47.602;9.886;2024-03-22T13:43:23;52.15;42.22;65.59;;
59284;Laerm;45056;47.602;9.886;2024-03-22T13:45:53;49.60;43.09;56.95;;
59284;Laerm;45056;47.602;9.886;2024-03-22T13:48:22;48.65;41.46;66.61;;